createdAt,value
2023-05-13T00:01:31.052Z,13.62
2023-05-13T00:03:58.509Z,13.61
2023-05-13T00:06:27.348Z,13.58
2023-05-13T00:08:54.815Z,13.50
2023-05-13T00:11:24.661Z,13.44
2023-05-13T00:13:52.121Z,13.46
2023-05-13T00:16:19.608Z,13.45
2023-05-13T00:18:47.103Z,13.44
2023-05-13T00:21:14.564Z,13.44
2023-05-13T00:23:43.791Z,13.38
2023-05-13T00:26:11.241Z,13.42
2023-05-13T00:28:38.692Z,13.44
2023-05-13T00:31:06.259Z,13.45
2023-05-13T00:33:33.711Z,13.45
2023-05-13T00:36:01.215Z,13.43
2023-05-13T00:38:28.694Z,13.44
2023-05-13T00:40:57.489Z,13.43
2023-05-13T00:43:24.951Z,13.41
2023-05-13T00:45:52.454Z,13.38
2023-05-13T00:48:19.990Z,13.44
2023-05-13T00:50:48.490Z,13.46
2023-05-13T00:53:17.974Z,13.44
2023-05-13T00:55:47.017Z,13.46
2023-05-13T00:58:17.793Z,13.48
2023-05-13T01:00:52.850Z,13.42
2023-05-13T01:03:28.144Z,13.38
2023-05-13T01:06:03.883Z,13.36
2023-05-13T01:08:38.703Z,13.29
2023-05-13T01:11:11.407Z,13.28
2023-05-13T01:13:43.279Z,13.25
2023-05-13T01:16:16.838Z,13.36
2023-05-13T01:18:47.052Z,13.25
2023-05-13T01:21:14.590Z,13.10
2023-05-13T01:23:43.397Z,13.08
2023-05-13T01:26:11.120Z,12.98
2023-05-13T01:28:38.654Z,13.02
2023-05-13T01:31:10.673Z,13.06
2023-05-13T01:33:38.970Z,13.12
2023-05-13T01:36:07.843Z,13.09
2023-05-13T01:38:37.340Z,12.98
2023-05-13T01:41:06.359Z,12.90
2023-05-13T01:43:33.898Z,12.89
2023-05-13T01:46:02.492Z,12.85
2023-05-13T01:48:30.017Z,12.92
2023-05-13T01:50:57.518Z,12.85
2023-05-13T01:53:24.969Z,12.90
2023-05-13T01:55:52.415Z,12.80
2023-05-13T01:58:21.208Z,12.74
2023-05-13T02:00:48.649Z,12.81
2023-05-13T02:03:16.261Z,12.87
2023-05-13T02:05:43.772Z,12.80
2023-05-13T02:08:11.220Z,12.76
2023-05-13T02:10:38.690Z,12.82
2023-05-13T02:13:06.157Z,12.77
2023-05-13T02:15:35.029Z,12.83
2023-05-13T02:18:02.594Z,12.82
2023-05-13T02:20:30.603Z,12.79
2023-05-13T02:22:58.067Z,12.77
2023-05-13T02:25:25.496Z,12.63
2023-05-13T02:27:52.994Z,12.65
2023-05-13T02:30:21.421Z,12.73
2023-05-13T02:32:50.507Z,12.76
2023-05-13T02:35:18.007Z,12.81
2023-05-13T02:37:45.653Z,12.76
2023-05-13T02:40:13.933Z,12.68
2023-05-13T02:42:43.147Z,12.71
2023-05-13T02:45:11.472Z,12.77
2023-05-13T02:47:39.178Z,12.70
2023-05-13T02:50:10.257Z,12.62
2023-05-13T02:52:39.139Z,12.56
2023-05-13T02:55:08.506Z,12.51
2023-05-13T02:57:36.436Z,12.43
2023-05-13T03:00:04.720Z,12.55
2023-05-13T03:02:32.382Z,12.53
2023-05-13T03:04:59.881Z,12.48
2023-05-13T03:07:28.710Z,12.43
2023-05-13T03:09:56.187Z,12.37
2023-05-13T03:12:23.789Z,12.38
2023-05-13T03:14:51.519Z,12.48
2023-05-13T03:17:19.104Z,12.45
2023-05-13T03:19:46.580Z,12.49
2023-05-13T03:22:14.108Z,12.41
2023-05-13T03:24:44.287Z,12.49
2023-05-13T03:27:12.147Z,12.45
2023-05-13T03:29:39.660Z,12.49
2023-05-13T03:32:07.936Z,12.45
2023-05-13T03:34:36.225Z,12.37
2023-05-13T03:37:03.755Z,12.42
2023-05-13T03:39:31.225Z,12.51
2023-05-13T03:42:00.143Z,12.56
2023-05-13T03:44:27.588Z,12.49
2023-05-13T03:46:55.092Z,12.40
2023-05-13T03:49:22.577Z,12.36
2023-05-13T03:51:50.046Z,12.39
2023-05-13T03:54:17.547Z,12.23
2023-05-13T03:56:45.026Z,12.19
2023-05-13T03:59:13.828Z,12.15
2023-05-13T04:01:41.378Z,12.19
2023-05-13T04:04:08.879Z,12.19
2023-05-13T04:06:36.348Z,12.18
2023-05-13T04:09:04.568Z,12.15
2023-05-13T04:11:32.524Z,12.18
2023-05-13T04:13:59.994Z,12.19
2023-05-13T04:16:29.269Z,12.17
2023-05-13T04:18:56.886Z,12.34
2023-05-13T04:21:26.930Z,12.35
2023-05-13T04:23:54.342Z,12.38
2023-05-13T04:26:22.650Z,12.37
2023-05-13T04:28:50.139Z,12.38
2023-05-13T04:31:17.594Z,12.36
2023-05-13T04:33:46.371Z,12.37
2023-05-13T04:36:15.192Z,12.41
2023-05-13T04:38:42.823Z,12.44
2023-05-13T04:41:10.256Z,12.43
2023-05-13T04:43:37.678Z,12.42
2023-05-13T04:46:05.375Z,12.49
2023-05-13T04:48:32.855Z,12.57
2023-05-13T04:51:02.130Z,12.71
2023-05-13T04:53:30.118Z,12.72
2023-05-13T04:56:00.754Z,12.70
2023-05-13T04:58:28.867Z,12.74
2023-05-13T05:00:57.234Z,12.69
2023-05-13T05:03:25.073Z,12.81
2023-05-13T05:05:52.653Z,12.75
2023-05-13T05:08:21.407Z,12.71
2023-05-13T05:10:48.875Z,12.84
2023-05-13T05:13:16.305Z,12.94
2023-05-13T05:15:44.022Z,12.98
2023-05-13T05:18:11.543Z,13.02
2023-05-13T05:20:39.446Z,13.02
2023-05-13T05:23:07.116Z,13.09
2023-05-13T05:25:35.917Z,13.18
2023-05-13T05:28:04.913Z,13.19
2023-05-13T05:30:39.148Z,13.24
2023-05-13T05:33:07.123Z,13.33
2023-05-13T05:35:37.062Z,13.32
2023-05-13T05:38:05.209Z,13.38
2023-05-13T05:40:32.735Z,13.36
2023-05-13T05:43:01.540Z,13.44
2023-05-13T05:45:29.617Z,13.48
2023-05-13T05:47:57.641Z,13.48
2023-05-13T05:50:25.258Z,13.56
2023-05-13T05:52:52.735Z,13.72
2023-05-13T05:55:20.395Z,13.67
2023-05-13T05:57:47.997Z,13.69
2023-05-13T06:00:18.848Z,13.86
2023-05-13T06:02:46.698Z,14.03
2023-05-13T06:05:14.282Z,14.07
2023-05-13T06:07:41.856Z,14.08
2023-05-13T06:10:09.854Z,14.25
2023-05-13T06:12:37.316Z,14.10
2023-05-13T06:15:06.409Z,14.17
2023-05-13T06:17:35.247Z,14.12
2023-05-13T06:20:02.819Z,14.07
2023-05-13T06:22:30.321Z,14.10
2023-05-13T06:24:57.820Z,14.09
2023-05-13T06:27:26.020Z,14.16
2023-05-13T06:29:53.579Z,14.08
2023-05-13T06:32:21.126Z,14.09
2023-05-13T06:34:53.523Z,14.17
2023-05-13T06:37:22.665Z,14.22
2023-05-13T06:39:50.253Z,14.09
2023-05-13T06:42:17.914Z,14.03
2023-05-13T06:44:45.411Z,14.31
2023-05-13T06:47:15.966Z,14.36
2023-05-13T06:49:43.993Z,14.73
2023-05-13T06:52:12.993Z,14.76
2023-05-13T06:54:40.502Z,14.97
2023-05-13T06:57:08.003Z,14.91
2023-05-13T06:59:36.712Z,15.00
2023-05-13T07:02:04.417Z,15.15
2023-05-13T07:04:31.932Z,15.18
2023-05-13T07:06:59.396Z,15.44
2023-05-13T07:09:28.207Z,15.61
2023-05-13T07:11:55.654Z,15.74
2023-05-13T07:14:25.028Z,15.61
2023-05-13T07:16:52.713Z,15.59
2023-05-13T07:19:20.212Z,15.53
2023-05-13T07:21:47.674Z,15.71
2023-05-13T07:24:15.109Z,15.70
2023-05-13T07:26:43.876Z,15.63
2023-05-13T07:29:11.326Z,15.78
2023-05-13T07:31:38.860Z,15.85
2023-05-13T07:34:06.324Z,15.72
2023-05-13T07:36:33.791Z,15.72
2023-05-13T07:39:02.068Z,15.98
2023-05-13T07:41:29.767Z,16.06
2023-05-13T07:43:58.626Z,16.04
2023-05-13T07:46:26.082Z,16.05
2023-05-13T07:48:53.542Z,16.15
2023-05-13T07:51:20.974Z,16.07
2023-05-13T07:53:48.423Z,16.25
2023-05-13T07:56:15.833Z,16.29
2023-05-13T07:58:43.490Z,16.38
2023-05-13T08:01:12.302Z,16.39
2023-05-13T08:03:39.944Z,16.06
2023-05-13T08:06:07.770Z,16.37
2023-05-13T08:08:35.523Z,16.47
2023-05-13T08:11:02.956Z,16.52
2023-05-13T08:13:30.403Z,16.60
2023-05-13T08:16:01.291Z,16.68
2023-05-13T08:18:30.394Z,16.76
2023-05-13T08:20:57.869Z,16.86
2023-05-13T08:23:40.424Z,16.94
2023-05-13T08:26:12.178Z,16.75
2023-05-13T08:28:39.685Z,17.06
2023-05-13T08:31:07.242Z,16.59
2023-05-13T08:33:36.180Z,16.92
2023-05-13T08:36:03.952Z,17.11
2023-05-13T08:38:32.631Z,17.20
2023-05-13T08:41:00.051Z,17.35
2023-05-13T08:43:30.482Z,17.46
2023-05-13T08:46:00.705Z,17.48
2023-05-13T08:48:28.538Z,17.64
2023-05-13T08:50:58.000Z,17.72
2023-05-13T08:53:26.837Z,17.78
2023-05-13T08:55:55.045Z,18.00
2023-05-13T08:58:22.550Z,18.13
2023-05-13T09:00:50.291Z,18.22
2023-05-13T09:03:17.858Z,18.34
2023-05-13T09:05:45.528Z,18.51
2023-05-13T09:08:14.898Z,18.65
2023-05-13T09:10:42.402Z,18.78
2023-05-13T09:13:09.829Z,18.90
2023-05-13T09:15:37.266Z,18.88
2023-05-13T09:18:06.414Z,18.75
2023-05-13T09:20:34.718Z,19.00
2023-05-13T09:23:04.426Z,19.15
2023-05-13T09:25:33.457Z,19.31
2023-05-13T09:28:02.803Z,19.41
2023-05-13T09:30:31.727Z,19.58
2023-05-13T09:33:07.928Z,19.75
2023-05-13T09:35:36.616Z,19.72
2023-05-13T09:38:14.286Z,19.90
2023-05-13T09:40:50.198Z,19.93
2023-05-13T09:43:18.834Z,20.08
2023-05-13T09:45:46.472Z,20.28
2023-05-13T09:48:14.984Z,20.46
2023-05-13T09:50:49.838Z,20.57
2023-05-13T09:53:17.666Z,20.73
2023-05-13T09:55:47.454Z,20.80
2023-05-13T09:58:15.833Z,20.98
2023-05-13T10:00:44.954Z,20.66
2023-05-13T10:03:12.968Z,20.80
2023-05-13T10:05:41.687Z,21.01
2023-05-13T10:08:10.723Z,21.12
2023-05-13T10:10:38.890Z,21.26
2023-05-13T10:13:10.837Z,21.27
2023-05-13T10:15:48.995Z,21.44
2023-05-13T10:18:18.173Z,21.64
2023-05-13T10:20:46.201Z,21.70
2023-05-13T10:23:13.805Z,21.78
2023-05-13T10:25:42.630Z,21.72
2023-05-13T10:28:12.041Z,21.91
2023-05-13T10:30:39.874Z,22.01
2023-05-13T10:33:08.191Z,21.98
2023-05-13T10:35:40.528Z,21.92
2023-05-13T10:38:15.740Z,22.00
2023-05-13T10:41:08.007Z,22.07
2023-05-13T10:43:37.424Z,22.13
2023-05-13T10:46:06.907Z,22.23
2023-05-13T10:48:42.911Z,22.28
2023-05-13T10:51:14.648Z,22.25
2023-05-13T10:53:47.802Z,22.39
2023-05-13T10:56:16.275Z,22.45
2023-05-13T10:58:58.611Z,22.52
2023-05-13T11:01:29.187Z,22.64
2023-05-13T11:03:59.084Z,22.68
2023-05-13T11:06:31.225Z,22.66
2023-05-13T11:08:58.679Z,22.71
2023-05-13T11:11:32.827Z,22.74
2023-05-13T11:14:17.167Z,22.81
2023-05-13T11:16:52.999Z,22.89
2023-05-13T11:19:22.389Z,22.85
2023-05-13T11:21:53.462Z,23.05
2023-05-13T11:24:22.409Z,23.10
2023-05-13T11:26:51.994Z,23.21
2023-05-13T11:29:32.101Z,23.30
2023-05-13T11:32:01.082Z,23.33
2023-05-13T11:34:29.736Z,23.34
2023-05-13T11:36:59.184Z,23.52
2023-05-13T11:39:27.415Z,23.25
2023-05-13T11:41:57.208Z,23.10
2023-05-13T11:44:26.142Z,23.04
2023-05-13T11:46:56.685Z,23.30
2023-05-13T11:49:34.945Z,23.46
2023-05-13T11:52:03.599Z,23.71
2023-05-13T11:54:31.329Z,23.75
2023-05-13T11:56:58.785Z,23.87
2023-05-13T11:59:27.874Z,24.02
2023-05-13T12:02:02.114Z,23.97
2023-05-13T12:04:30.966Z,24.11
2023-05-13T12:06:58.868Z,23.60
2023-05-13T12:09:26.821Z,23.80
2023-05-13T12:11:54.886Z,23.41
2023-05-13T12:14:23.727Z,23.73
2023-05-13T12:16:52.823Z,23.59
2023-05-13T12:19:22.003Z,23.62
2023-05-13T12:21:51.608Z,23.34
2023-05-13T12:24:20.819Z,23.27
2023-05-13T12:26:48.739Z,23.34
2023-05-13T12:29:16.310Z,23.68
2023-05-13T12:31:44.912Z,23.99
2023-05-13T12:34:12.410Z,24.21
2023-05-13T12:36:41.447Z,24.37
2023-05-13T12:39:10.949Z,24.40
2023-05-13T12:41:39.707Z,24.02
2023-05-13T12:44:10.377Z,23.67
2023-05-13T12:46:39.727Z,23.49
2023-05-13T12:49:11.928Z,23.27
2023-05-13T12:51:40.747Z,23.11
2023-05-13T12:54:08.166Z,23.58
2023-05-13T12:56:35.627Z,24.00
2023-05-13T12:59:03.139Z,24.15
2023-05-13T13:01:30.604Z,24.26
2023-05-13T13:03:58.160Z,24.12
2023-05-13T13:06:25.930Z,24.26
2023-05-13T13:08:54.775Z,24.61
2023-05-13T13:11:22.316Z,24.82
2023-05-13T13:13:50.876Z,24.92
2023-05-13T13:16:18.454Z,24.59
2023-05-13T13:18:46.047Z,24.20
2023-05-13T13:21:13.622Z,24.15
2023-05-13T13:23:41.063Z,23.82
2023-05-13T13:26:11.216Z,23.71
2023-05-13T13:28:38.690Z,23.52
2023-05-13T13:31:07.599Z,23.37
2023-05-13T13:33:35.057Z,23.21
2023-05-13T13:36:02.550Z,22.74
2023-05-13T13:38:29.986Z,22.16
2023-05-13T13:40:57.439Z,22.48
2023-05-13T13:43:26.780Z,22.33
2023-05-13T13:45:54.292Z,22.90
2023-05-13T13:48:22.153Z,23.11
2023-05-13T13:50:50.728Z,22.78
2023-05-13T13:53:20.356Z,22.65
2023-05-13T13:55:47.948Z,22.47
2023-05-13T13:58:15.759Z,22.45
2023-05-13T14:00:44.813Z,22.49
2023-05-13T14:03:12.529Z,23.13
2023-05-13T14:05:40.217Z,23.36
2023-05-13T14:08:07.792Z,23.21
2023-05-13T14:10:35.464Z,23.08
2023-05-13T14:13:03.054Z,23.05
2023-05-13T14:15:30.824Z,22.87
2023-05-13T14:17:59.807Z,22.67
2023-05-13T14:20:28.830Z,21.89
2023-05-13T14:22:56.539Z,21.63
2023-05-13T14:25:24.061Z,21.48
2023-05-13T14:27:51.661Z,21.37
2023-05-13T14:30:19.261Z,20.90
2023-05-13T14:32:47.370Z,20.43
2023-05-13T14:35:17.000Z,20.41
2023-05-13T14:37:44.585Z,20.02
2023-05-13T14:40:12.320Z,19.84
2023-05-13T14:42:40.911Z,19.65
2023-05-13T14:45:12.466Z,19.64
2023-05-13T14:47:42.284Z,19.45
2023-05-13T14:50:12.158Z,19.31
2023-05-13T14:52:41.069Z,18.92
2023-05-13T14:55:09.251Z,18.81
2023-05-13T14:57:36.835Z,18.45
2023-05-13T15:00:05.093Z,17.93
2023-05-13T15:02:32.800Z,17.97
2023-05-13T15:05:00.451Z,18.26
2023-05-13T15:07:28.082Z,18.17
2023-05-13T15:09:57.312Z,18.59
2023-05-13T15:12:24.850Z,18.65
2023-05-13T15:14:53.430Z,18.54
2023-05-13T15:17:21.177Z,18.83
2023-05-13T15:19:48.997Z,19.19
2023-05-13T15:22:16.895Z,19.01
2023-05-13T15:24:44.492Z,19.32
2023-05-13T15:27:14.119Z,19.46
2023-05-13T15:29:41.700Z,19.55
2023-05-13T15:32:09.267Z,19.85
2023-05-13T15:34:36.812Z,20.25
2023-05-13T15:37:04.394Z,20.17
2023-05-13T15:39:31.942Z,20.32
2023-05-13T15:41:59.454Z,20.16
2023-05-13T15:44:28.537Z,20.12
2023-05-13T15:46:56.147Z,20.18
2023-05-13T15:49:23.735Z,20.20
2023-05-13T15:51:51.488Z,20.17
2023-05-13T15:54:19.100Z,20.10
2023-05-13T15:56:46.628Z,20.11
2023-05-13T15:59:14.190Z,20.12
2023-05-13T16:01:43.130Z,20.02
2023-05-13T16:04:10.814Z,19.83
2023-05-13T16:06:38.390Z,19.78
2023-05-13T16:09:06.359Z,19.86
2023-05-13T16:11:34.051Z,19.91
2023-05-13T16:14:04.574Z,19.65
2023-05-13T16:16:32.541Z,19.51
2023-05-13T16:19:03.514Z,19.62
2023-05-13T16:21:31.563Z,19.47
2023-05-13T16:23:59.145Z,19.57
2023-05-13T16:26:26.774Z,19.50
2023-05-13T16:28:54.539Z,19.39
2023-05-13T16:31:22.107Z,19.51
2023-05-13T16:33:49.736Z,19.47
2023-05-13T16:36:18.598Z,19.53
2023-05-13T16:38:46.636Z,19.38
2023-05-13T16:41:14.222Z,19.49
2023-05-13T16:43:41.861Z,19.59
2023-05-13T16:46:09.407Z,19.83
2023-05-13T16:48:37.102Z,19.75
2023-05-13T16:51:04.956Z,19.57
2023-05-13T16:53:34.528Z,19.73
2023-05-13T16:56:02.179Z,19.90
2023-05-13T16:58:29.721Z,20.86
2023-05-13T17:00:59.189Z,21.82
2023-05-13T17:03:27.186Z,22.20
2023-05-13T17:05:55.018Z,22.50
2023-05-13T17:08:24.366Z,22.68
2023-05-13T17:10:53.307Z,22.13
2023-05-13T17:13:21.354Z,21.06
2023-05-13T17:15:48.935Z,20.83
2023-05-13T17:18:16.529Z,20.40
2023-05-13T17:20:45.860Z,20.30
2023-05-13T17:23:13.497Z,20.00
2023-05-13T17:25:41.051Z,19.99
2023-05-13T17:31:57.122Z,19.84
2023-05-13T17:34:24.605Z,19.80
2023-05-13T17:36:52.108Z,19.81
2023-05-13T17:39:19.593Z,19.74
2023-05-13T17:41:47.351Z,19.76
2023-05-13T17:44:15.145Z,19.75
2023-05-13T17:46:42.685Z,19.62
2023-05-13T17:49:11.579Z,19.37
2023-05-13T17:51:39.450Z,19.07
2023-05-13T17:54:07.043Z,18.82
2023-05-13T17:56:34.503Z,18.89
2023-05-13T17:59:01.980Z,18.85
2023-05-13T18:01:29.477Z,18.56
2023-05-13T18:03:57.010Z,18.50
2023-05-13T18:06:25.823Z,18.66
2023-05-13T18:08:53.949Z,18.11
2023-05-13T18:11:21.905Z,17.95
2023-05-13T18:13:51.475Z,17.59
2023-05-13T18:16:19.633Z,17.44
2023-05-13T18:18:48.554Z,17.46
2023-05-13T18:21:16.389Z,17.38
2023-05-13T18:23:46.431Z,17.11
2023-05-13T18:26:13.922Z,16.88
2023-05-13T18:28:47.604Z,16.81
2023-05-13T18:31:15.337Z,16.66
2023-05-13T18:33:42.810Z,16.77
2023-05-13T18:36:10.500Z,16.90
2023-05-13T18:38:38.351Z,16.84
2023-05-13T18:41:07.227Z,16.61
2023-05-13T18:43:34.707Z,16.50
2023-05-13T18:46:02.348Z,16.31
2023-05-13T18:48:29.834Z,16.35
2023-05-13T18:50:57.309Z,16.42
2023-05-13T18:53:24.804Z,16.26
2023-05-13T18:55:52.356Z,15.93
2023-05-13T18:58:21.523Z,15.77
2023-05-13T19:00:49.824Z,16.04
2023-05-13T19:03:17.904Z,15.82
2023-05-13T19:05:46.062Z,15.54
2023-05-13T19:08:13.550Z,15.59
2023-05-13T19:10:41.047Z,15.64
2023-05-13T19:13:08.598Z,15.60
2023-05-13T19:15:37.731Z,15.42
2023-05-13T19:18:05.310Z,15.54
2023-05-13T19:20:32.897Z,15.44
2023-05-13T19:23:00.360Z,15.39
2023-05-13T19:25:27.905Z,15.65
2023-05-13T19:27:55.461Z,15.64
2023-05-13T19:30:23.229Z,15.55
2023-05-13T19:32:52.255Z,15.53
2023-05-13T19:35:19.783Z,15.28
2023-05-13T19:37:47.271Z,15.32
2023-05-13T19:40:14.727Z,15.19
2023-05-13T19:42:42.215Z,15.12
2023-05-13T19:45:10.971Z,15.08
2023-05-13T19:47:39.136Z,15.22
2023-05-13T19:50:08.724Z,15.28
2023-05-13T19:52:36.244Z,15.18
2023-05-13T19:55:04.324Z,15.09
2023-05-13T19:57:31.782Z,15.09
2023-05-13T19:59:59.407Z,14.97
2023-05-13T20:02:27.068Z,14.74
2023-05-13T20:04:54.595Z,14.52
2023-05-13T20:07:23.612Z,14.38
2023-05-13T20:09:51.189Z,14.24
2023-05-13T20:12:18.690Z,14.19
2023-05-13T20:14:47.798Z,14.13
2023-05-13T20:17:17.920Z,14.12
2023-05-13T20:19:47.207Z,13.95
2023-05-13T20:22:14.836Z,13.77
2023-05-13T20:24:43.953Z,13.88
2023-05-13T20:27:11.525Z,13.81
2023-05-13T20:29:40.734Z,13.77
2023-05-13T20:32:09.188Z,13.81
2023-05-13T20:34:37.498Z,13.80
2023-05-13T20:37:06.148Z,13.87
2023-05-13T20:39:33.639Z,13.66
2023-05-13T20:42:02.598Z,13.52
2023-05-13T20:44:30.100Z,13.52
2023-05-13T20:46:57.639Z,13.61
2023-05-13T20:49:25.110Z,13.46
2023-05-13T20:51:52.693Z,13.36
2023-05-13T20:54:20.435Z,13.44
2023-05-13T20:56:47.915Z,13.35
2023-05-13T20:59:16.756Z,13.30
2023-05-13T21:01:47.272Z,13.33
2023-05-13T21:04:15.434Z,13.22
2023-05-13T21:06:44.249Z,13.20
2023-05-13T21:09:11.783Z,13.13
2023-05-13T21:11:39.324Z,13.10
2023-05-13T21:14:06.777Z,13.06
2023-05-13T21:16:35.998Z,12.95
2023-05-13T21:19:03.493Z,13.00
2023-05-13T21:21:32.041Z,12.99
2023-05-13T21:23:59.543Z,12.97
2023-05-13T21:26:27.228Z,12.98
2023-05-13T21:28:57.651Z,12.97
2023-05-13T21:31:25.389Z,12.94
2023-05-13T21:33:54.266Z,12.96
2023-05-13T21:36:21.731Z,12.82
2023-05-13T21:38:49.424Z,12.89
2023-05-13T21:41:19.783Z,12.81
2023-05-13T21:43:47.575Z,12.79
2023-05-13T21:46:15.048Z,12.78
2023-05-13T21:48:42.892Z,12.72
2023-05-13T21:51:11.782Z,12.80
2023-05-13T21:53:39.286Z,12.71
2023-05-13T21:56:07.007Z,12.62
2023-05-13T21:58:34.480Z,12.68
2023-05-13T22:01:03.900Z,12.70
2023-05-13T22:03:31.830Z,12.57
2023-05-13T22:05:59.497Z,12.57
2023-05-13T22:08:28.305Z,12.54
2023-05-13T22:10:55.854Z,12.39
2023-05-13T22:13:24.442Z,12.49
2023-05-13T22:15:52.256Z,12.52
2023-05-13T22:18:19.892Z,12.35
2023-05-13T22:20:47.572Z,12.40
2023-05-13T22:23:15.072Z,12.49
2023-05-13T22:25:43.899Z,12.40
2023-05-13T22:28:11.436Z,12.43
2023-05-13T22:30:38.886Z,12.70
2023-05-13T22:33:08.466Z,12.65
2023-05-13T22:35:36.884Z,12.41
2023-05-13T22:38:04.876Z,12.37
2023-05-13T22:40:32.445Z,12.27
2023-05-13T22:43:01.500Z,12.06
2023-05-13T22:45:28.957Z,12.09
2023-05-13T22:47:56.762Z,12.14
2023-05-13T22:50:25.222Z,12.04
2023-05-13T22:52:53.094Z,11.89
2023-05-13T22:55:20.762Z,11.88
2023-05-13T22:57:48.272Z,11.83
2023-05-13T23:00:17.953Z,11.80
2023-05-13T23:02:45.514Z,11.75
2023-05-13T23:05:13.207Z,11.71
2023-05-13T23:07:40.703Z,12.12
2023-05-13T23:10:09.260Z,12.39
2023-05-13T23:12:37.687Z,12.38
2023-05-13T23:15:06.893Z,12.27
2023-05-13T23:17:35.896Z,12.11
2023-05-13T23:20:03.538Z,12.29
2023-05-13T23:22:31.027Z,12.35
2023-05-13T23:24:58.476Z,12.22
2023-05-13T23:27:26.007Z,12.20
2023-05-13T23:29:53.453Z,12.06
2023-05-13T23:32:21.008Z,12.03
2023-05-13T23:34:49.837Z,11.97
2023-05-13T23:37:17.936Z,11.92
2023-05-13T23:39:45.601Z,11.93
2023-05-13T23:42:13.121Z,11.89
2023-05-13T23:44:40.848Z,11.73
2023-05-13T23:47:08.451Z,11.77
2023-05-13T23:49:35.903Z,11.76
2023-05-13T23:52:04.884Z,11.91
2023-05-13T23:54:32.389Z,11.86
2023-05-13T23:57:00.152Z,11.84
2023-05-13T23:59:27.639Z,11.80
